sensor_id;sensor_type;location;lat;lon;timestamp;pressure;altitude;pressure_sealevel;temperature;humidity
21086;BME280;34247;50.064;19.970;2023-04-04T00:00:10;99926.84;;;3.50;60.84
21086;BME280;34247;50.064;19.970;2023-04-04T00:01:15;99923.56;;;3.42;60.78
21086;BME280;34247;50.064;19.970;2023-04-04T00:02:19;99923.66;;;3.39;61.07
21086;BME280;34247;50.064;19.970;2023-04-04T00:03:23;99926.19;;;3.42;61.08
21086;BME280;34247;50.064;19.970;2023-04-04T00:04:28;99918.31;;;3.42;60.82
21086;BME280;34247;50.064;19.970;2023-04-04T00:05:32;99913.16;;;3.39;60.96
21086;BME280;34247;50.064;19.970;2023-04-04T00:06:41;99919.59;;;3.29;61.22
21086;BME280;34247;50.064;19.970;2023-04-04T00:07:48;99920.53;;;3.26;61.44
21086;BME280;34247;50.064;19.970;2023-04-04T00:08:55;99912.69;;;3.25;61.66
21086;BME280;34247;50.064;19.970;2023-04-04T00:09:59;99919.59;;;3.29;61.53
21086;BME280;34247;50.064;19.970;2023-04-04T00:11:03;99917.97;;;3.23;61.71
21086;BME280;34247;50.064;19.970;2023-04-04T00:12:09;99917.13;;;3.23;61.70
21086;BME280;34247;50.064;19.970;2023-04-04T00:13:14;99918.03;;;3.22;61.89
21086;BME280;34247;50.064;19.970;2023-04-04T00:14:19;99911.81;;;3.26;61.89
21086;BME280;34247;50.064;19.970;2023-04-04T00:15:25;99917.91;;;3.26;61.63
21086;BME280;34247;50.064;19.970;2023-04-04T00:16:29;99918.72;;;3.28;61.78
21086;BME280;34247;50.064;19.970;2023-04-04T00:17:33;99918.91;;;3.22;61.76
21086;BME280;34247;50.064;19.970;2023-04-04T00:18:37;99920.66;;;3.22;61.83
21086;BME280;34247;50.064;19.970;2023-04-04T00:19:41;99926.00;;;3.19;61.97
21086;BME280;34247;50.064;19.970;2023-04-04T00:20:45;99919.09;;;3.15;62.22
21086;BME280;34247;50.064;19.970;2023-04-04T00:21:49;99927.06;;;3.12;62.34
21086;BME280;34247;50.064;19.970;2023-04-04T00:22:53;99932.38;;;3.09;62.42
21086;BME280;34247;50.064;19.970;2023-04-04T00:23:57;99923.56;;;3.13;62.13
21086;BME280;34247;50.064;19.970;2023-04-04T00:25:02;99925.22;;;3.15;62.04
21086;BME280;34247;50.064;19.970;2023-04-04T00:26:09;99923.22;;;3.23;61.76
21086;BME280;34247;50.064;19.970;2023-04-04T00:27:14;99920.06;;;3.12;62.34
21086;BME280;34247;50.064;19.970;2023-04-04T00:28:19;99923.41;;;3.17;62.04
21086;BME280;34247;50.064;19.970;2023-04-04T00:29:23;99928.75;;;3.14;61.92
21086;BME280;34247;50.064;19.970;2023-04-04T00:30:28;99932.50;;;3.06;62.21
21086;BME280;34247;50.064;19.970;2023-04-04T00:31:33;99921.25;;;3.00;62.53
21086;BME280;34247;50.064;19.970;2023-04-04T00:32:37;99923.13;;;2.95;62.96
21086;BME280;34247;50.064;19.970;2023-04-04T00:33:42;99925.69;;;2.97;62.96
21086;BME280;34247;50.064;19.970;2023-04-04T00:34:52;99919.59;;;2.96;62.98
21086;BME280;34247;50.064;19.970;2023-04-04T00:35:59;99931.94;;;2.93;63.17
21086;BME280;34247;50.064;19.970;2023-04-04T00:37:03;99925.69;;;2.98;63.22
21086;BME280;34247;50.064;19.970;2023-04-04T00:38:10;99924.84;;;2.96;63.12
21086;BME280;34247;50.064;19.970;2023-04-04T00:39:15;99935.31;;;2.98;63.14
21086;BME280;34247;50.064;19.970;2023-04-04T00:40:19;99928.41;;;2.94;63.52
21086;BME280;34247;50.064;19.970;2023-04-04T00:41:23;99932.06;;;2.88;63.84
21086;BME280;34247;50.064;19.970;2023-04-04T00:42:27;99924.91;;;2.95;63.38
21086;BME280;34247;50.064;19.970;2023-04-04T00:43:33;99928.31;;;2.97;63.59
21086;BME280;34247;50.064;19.970;2023-04-04T00:44:37;99927.41;;;2.99;63.71
21086;BME280;34247;50.064;19.970;2023-04-04T00:45:44;99922.28;;;2.95;63.50
21086;BME280;34247;50.064;19.970;2023-04-04T00:46:51;99930.34;;;2.87;64.21
21086;BME280;34247;50.064;19.970;2023-04-04T00:48:01;99931.19;;;2.88;63.88
21086;BME280;34247;50.064;19.970;2023-04-04T00:49:06;99935.44;;;2.93;63.89
21086;BME280;34247;50.064;19.970;2023-04-04T00:50:11;99930.28;;;2.90;64.02
21086;BME280;34247;50.064;19.970;2023-04-04T00:51:16;99926.81;;;2.90;64.16
21086;BME280;34247;50.064;19.970;2023-04-04T00:52:21;99932.06;;;2.88;64.35
21086;BME280;34247;50.064;19.970;2023-04-04T00:53:25;99937.31;;;2.88;64.41
21086;BME280;34247;50.064;19.970;2023-04-04T00:54:30;99924.19;;;2.90;64.26
21086;BME280;34247;50.064;19.970;2023-04-04T00:55:38;99932.97;;;2.87;64.41
21086;BME280;34247;50.064;19.970;2023-04-04T00:56:46;99927.81;;;2.84;64.66
21086;BME280;34247;50.064;19.970;2023-04-04T00:57:50;99932.31;;;2.79;64.83
21086;BME280;34247;50.064;19.970;2023-04-04T00:58:55;99931.38;;;2.82;64.70
21086;BME280;34247;50.064;19.970;2023-04-04T01:00:03;99932.31;;;2.79;64.79
21086;BME280;34247;50.064;19.970;2023-04-04T01:01:09;99923.53;;;2.80;65.08
21086;BME280;34247;50.064;19.970;2023-04-04T01:02:16;99927.13;;;2.78;65.45
21086;BME280;34247;50.064;19.970;2023-04-04T01:03:20;99924.56;;;2.74;65.11
21086;BME280;34247;50.064;19.970;2023-04-04T01:04:24;99927.19;;;2.74;65.35
21086;BME280;34247;50.064;19.970;2023-04-04T01:05:41;99925.50;;;2.72;65.60
21086;BME280;34247;50.064;19.970;2023-04-04T01:06:45;99931.72;;;2.68;65.49
21086;BME280;34247;50.064;19.970;2023-04-04T01:07:49;99933.47;;;2.69;65.67
21086;BME280;34247;50.064;19.970;2023-04-04T01:08:54;99938.88;;;2.63;65.93
21086;BME280;34247;50.064;19.970;2023-04-04T01:10:00;99938.78;;;2.66;65.83
21086;BME280;34247;50.064;19.970;2023-04-04T01:11:06;99935.38;;;2.62;66.20
21086;BME280;34247;50.064;19.970;2023-04-04T01:12:10;99932.72;;;2.64;65.99
21086;BME280;34247;50.064;19.970;2023-04-04T01:13:15;99938.00;;;2.62;66.24
21086;BME280;34247;50.064;19.970;2023-04-04T01:14:20;99929.16;;;2.66;65.94
21086;BME280;34247;50.064;19.970;2023-04-04T01:15:27;99931.16;;;2.57;66.14
21086;BME280;34247;50.064;19.970;2023-04-04T01:16:32;99937.28;;;2.56;66.43
21086;BME280;34247;50.064;19.970;2023-04-04T01:17:36;99934.69;;;2.56;66.45
21086;BME280;34247;50.064;19.970;2023-04-04T01:18:41;99936.47;;;2.54;66.89
21086;BME280;34247;50.064;19.970;2023-04-04T01:20:00;99936.47;;;2.54;66.66
21086;BME280;34247;50.064;19.970;2023-04-04T01:21:11;99933.88;;;2.52;66.55
21086;BME280;34247;50.064;19.970;2023-04-04T01:22:18;99939.97;;;2.53;67.03
21086;BME280;34247;50.064;19.970;2023-04-04T01:24:58;99939.97;;;2.53;66.83
21086;BME280;34247;50.064;19.970;2023-04-04T01:26:04;99947.03;;;2.51;67.12
21086;BME280;34247;50.064;19.970;2023-04-04T01:27:08;99940.97;;;2.48;67.27
21086;BME280;34247;50.064;19.970;2023-04-04T01:28:15;99945.31;;;2.49;66.90
21086;BME280;34247;50.064;19.970;2023-04-04T01:29:19;99943.47;;;2.53;66.96
21086;BME280;34247;50.064;19.970;2023-04-04T01:30:31;99949.59;;;2.52;67.03
21086;BME280;34247;50.064;19.970;2023-04-04T01:31:59;99949.59;;;2.52;66.82
21086;BME280;34247;50.064;19.970;2023-04-04T01:33:21;99942.78;;;2.46;66.90
21086;BME280;34247;50.064;19.970;2023-04-04T01:36:39;99938.41;;;2.45;67.28
21086;BME280;34247;50.064;19.970;2023-04-04T01:38:17;99945.50;;;2.42;67.46
21086;BME280;34247;50.064;19.970;2023-04-04T01:39:34;99949.84;;;2.43;67.48
21086;BME280;34247;50.064;19.970;2023-04-04T01:40:43;99948.97;;;2.42;67.30
21086;BME280;34247;50.064;19.970;2023-04-04T01:41:51;99943.69;;;2.44;67.26
21086;BME280;34247;50.064;19.970;2023-04-04T01:42:57;99942.94;;;2.40;67.75
21086;BME280;34247;50.064;19.970;2023-04-04T01:44:02;99946.47;;;2.38;67.53
21086;BME280;34247;50.064;19.970;2023-04-04T01:45:07;99954.31;;;2.39;67.55
21086;BME280;34247;50.064;19.970;2023-04-04T01:46:11;99956.94;;;2.38;67.42
21086;BME280;34247;50.064;19.970;2023-04-04T01:47:16;99952.56;;;2.38;67.61
21086;BME280;34247;50.064;19.970;2023-04-04T01:48:20;99948.16;;;2.40;67.55
21086;BME280;34247;50.064;19.970;2023-04-04T01:49:26;99942.03;;;2.41;67.58
21086;BME280;34247;50.064;19.970;2023-04-04T01:50:30;99945.41;;;2.45;67.34
21086;BME280;34247;50.064;19.970;2023-04-04T01:51:44;99945.47;;;2.43;67.37
21086;BME280;34247;50.064;19.970;2023-04-04T01:52:49;99948.06;;;2.43;67.07
21086;BME280;34247;50.064;19.970;2023-04-04T01:53:56;99947.06;;;2.49;67.22
21086;BME280;34247;50.064;19.970;2023-04-04T01:55:02;99951.50;;;2.47;67.34
21086;BME280;34247;50.064;19.970;2023-04-04T01:56:07;99948.03;;;2.46;67.36
21086;BME280;34247;50.064;19.970;2023-04-04T01:57:11;99942.72;;;2.48;67.03
21086;BME280;34247;50.064;19.970;2023-04-04T01:58:15;99943.63;;;2.47;67.40
21086;BME280;34247;50.064;19.970;2023-04-04T01:59:20;99955.03;;;2.44;67.13
21086;BME280;34247;50.064;19.970;2023-04-04T02:00:25;99945.69;;;2.34;67.33
21086;BME280;34247;50.064;19.970;2023-04-04T02:01:29;99949.16;;;2.35;67.48
21086;BME280;34247;50.064;19.970;2023-04-04T02:02:33;99950.03;;;2.35;67.79
21086;BME280;34247;50.064;19.970;2023-04-04T02:03:40;99956.94;;;2.38;67.48
21086;BME280;34247;50.064;19.970;2023-04-04T02:04:47;99947.41;;;2.35;67.58
21086;BME280;34247;50.064;19.970;2023-04-04T02:05:51;99942.97;;;2.37;67.59
21086;BME280;34247;50.064;19.970;2023-04-04T02:06:58;99943.81;;;2.39;67.43
21086;BME280;34247;50.064;19.970;2023-04-04T02:08:03;99942.16;;;2.35;67.58
21086;BME280;34247;50.064;19.970;2023-04-04T02:09:06;99941.22;;;2.38;67.66
21086;BME280;34247;50.064;19.970;2023-04-04T02:10:13;99937.69;;;2.39;67.63
21086;BME280;34247;50.064;19.970;2023-04-04T02:11:17;99943.81;;;2.39;67.77
21086;BME280;34247;50.064;19.970;2023-04-04T02:12:25;99942.94;;;2.40;67.81
21086;BME280;34247;50.064;19.970;2023-04-04T02:13:29;99944.63;;;2.41;67.79
21086;BME280;34247;50.064;19.970;2023-04-04T02:14:34;99941.94;;;2.44;67.60
21086;BME280;34247;50.064;19.970;2023-04-04T02:15:38;99950.53;;;2.49;67.41
21086;BME280;34247;50.064;19.970;2023-04-04T02:16:42;99941.00;;;2.47;67.40
21086;BME280;34247;50.064;19.970;2023-04-04T02:17:48;99945.47;;;2.43;67.49
21086;BME280;34247;50.064;19.970;2023-04-04T02:18:52;99944.50;;;2.46;67.49
21086;BME280;34247;50.064;19.970;2023-04-04T02:19:56;99944.50;;;2.46;67.77
21086;BME280;34247;50.064;19.970;2023-04-04T02:21:01;99942.88;;;2.42;67.79
21086;BME280;34247;50.064;19.970;2023-04-04T02:22:05;99943.69;;;2.44;67.83
21086;BME280;34247;50.064;19.970;2023-04-04T02:23:09;99945.31;;;2.49;67.77
21086;BME280;34247;50.064;19.970;2023-04-04T02:24:13;99947.22;;;2.43;67.89
21086;BME280;34247;50.064;19.970;2023-04-04T02:25:16;99946.41;;;2.41;67.77
21086;BME280;34247;50.064;19.970;2023-04-04T02:26:21;99948.13;;;2.42;68.13
21086;BME280;34247;50.064;19.970;2023-04-04T02:27:25;99948.03;;;2.45;68.21
21086;BME280;34247;50.064;19.970;2023-04-04T02:28:32;99940.34;;;2.37;68.12
21086;BME280;34247;50.064;19.970;2023-04-04T02:29:37;99946.59;;;2.33;68.56
21086;BME280;34247;50.064;19.970;2023-04-04T02:30:41;99947.44;;;2.34;68.72
21086;BME280;34247;50.064;19.970;2023-04-04T02:31:45;99939.50;;;2.37;68.35
21086;BME280;34247;50.064;19.970;2023-04-04T02:32:49;99943.88;;;2.36;68.50
21086;BME280;34247;50.064;19.970;2023-04-04T02:33:53;99950.97;;;2.33;68.71
21086;BME280;34247;50.064;19.970;2023-04-04T02:34:57;99949.94;;;2.40;68.37
21086;BME280;34247;50.064;19.970;2023-04-04T02:36:02;99942.06;;;2.38;68.43
21086;BME280;34247;50.064;19.970;2023-04-04T02:37:06;99950.84;;;2.37;68.66
21086;BME280;34247;50.064;19.970;2023-04-04T02:38:11;99952.66;;;2.35;68.75
21086;BME280;34247;50.064;19.970;2023-04-04T02:39:18;99931.69;;;2.35;68.55
21086;BME280;34247;50.064;19.970;2023-04-04T02:40:22;99945.53;;;2.40;68.47
21086;BME280;34247;50.064;19.970;2023-04-04T02:41:26;99952.66;;;2.35;68.68
21086;BME280;34247;50.064;19.970;2023-04-04T02:42:30;99943.84;;;2.38;68.53
21086;BME280;34247;50.064;19.970;2023-04-04T02:43:35;99944.88;;;2.32;68.73
21086;BME280;34247;50.064;19.970;2023-04-04T02:44:42;99948.22;;;2.37;68.71
21086;BME280;34247;50.064;19.970;2023-04-04T02:45:49;99952.59;;;2.37;68.70
21086;BME280;34247;50.064;19.970;2023-04-04T02:46:54;99950.03;;;2.35;68.33
21086;BME280;34247;50.064;19.970;2023-04-04T02:47:58;99947.53;;;2.29;68.77
21086;BME280;34247;50.064;19.970;2023-04-04T02:49:02;99950.16;;;2.29;68.86
21086;BME280;34247;50.064;19.970;2023-04-04T02:50:07;99946.69;;;2.29;68.64
21086;BME280;34247;50.064;19.970;2023-04-04T02:51:17;99950.97;;;2.31;68.55
21086;BME280;34247;50.064;19.970;2023-04-04T02:52:22;99942.31;;;2.29;68.79
21086;BME280;34247;50.064;19.970;2023-04-04T02:53:26;99940.44;;;2.34;68.57
21086;BME280;34247;50.064;19.970;2023-04-04T02:54:33;99939.50;;;2.37;68.39
21086;BME280;34247;50.064;19.970;2023-04-04T02:55:37;99948.38;;;2.31;68.72
21086;BME280;34247;50.064;19.970;2023-04-04T02:56:41;99947.50;;;2.32;68.89
21086;BME280;34247;50.064;19.970;2023-04-04T02:57:50;99941.22;;;2.38;68.64
21086;BME280;34247;50.064;19.970;2023-04-04T02:58:54;99947.34;;;2.37;68.54
21086;BME280;34247;50.064;19.970;2023-04-04T02:59:58;99939.50;;;2.37;68.44
21086;BME280;34247;50.064;19.970;2023-04-04T03:01:02;99947.41;;;2.35;68.29
21086;BME280;34247;50.064;19.970;2023-04-04T03:02:06;99934.31;;;2.35;68.57
21086;BME280;34247;50.064;19.970;2023-04-04T03:03:10;99936.94;;;2.35;68.25
21086;BME280;34247;50.064;19.970;2023-04-04T03:04:14;99939.53;;;2.35;68.48
21086;BME280;34247;50.064;19.970;2023-04-04T03:05:18;99936.88;;;2.37;68.21
21086;BME280;34247;50.064;19.970;2023-04-04T03:06:25;99937.63;;;2.42;68.40
21086;BME280;34247;50.064;19.970;2023-04-04T03:07:29;99933.31;;;2.41;68.25
21086;BME280;34247;50.064;19.970;2023-04-04T03:08:33;99934.03;;;2.46;68.06
21086;BME280;34247;50.064;19.970;2023-04-04T03:09:40;99941.06;;;2.44;67.97
21086;BME280;34247;50.064;19.970;2023-04-04T03:10:47;99935.97;;;2.39;68.07
21086;BME280;34247;50.064;19.970;2023-04-04T03:11:51;99934.25;;;2.37;68.06
21086;BME280;34247;50.064;19.970;2023-04-04T03:12:56;99935.06;;;2.40;67.99
21086;BME280;34247;50.064;19.970;2023-04-04T03:14:00;99944.75;;;2.37;68.24
21086;BME280;34247;50.064;19.970;2023-04-04T03:15:05;99943.13;;;2.33;68.50
21086;BME280;34247;50.064;19.970;2023-04-04T03:16:10;99943.97;;;2.33;68.15
21086;BME280;34247;50.064;19.970;2023-04-04T03:17:16;99933.34;;;2.39;68.37
21086;BME280;34247;50.064;19.970;2023-04-04T03:18:20;99931.59;;;2.38;68.26
21086;BME280;34247;50.064;19.970;2023-04-04T03:19:24;99938.78;;;2.30;68.55
21086;BME280;34247;50.064;19.970;2023-04-04T03:20:29;99935.34;;;2.28;68.91
21086;BME280;34247;50.064;19.970;2023-04-04T03:21:34;99926.59;;;2.29;68.70
21086;BME280;34247;50.064;19.970;2023-04-04T03:22:38;99926.53;;;2.32;68.78
21086;BME280;34247;50.064;19.970;2023-04-04T03:23:42;99935.06;;;2.40;68.29
21086;BME280;34247;50.064;19.970;2023-04-04T03:24:49;99928.09;;;2.39;68.67
21086;BME280;34247;50.064;19.970;2023-04-04T03:25:53;99930.59;;;2.44;68.33
21086;BME280;34247;50.064;19.970;2023-04-04T03:26:59;99932.34;;;2.43;68.46
21086;BME280;34247;50.064;19.970;2023-04-04T03:28:10;99929.63;;;2.48;67.98
21086;BME280;34247;50.064;19.970;2023-04-04T03:29:14;99937.53;;;2.46;68.04
21086;BME280;34247;50.064;19.970;2023-04-04T03:30:19;99935.84;;;2.44;68.30
21086;BME280;34247;50.064;19.970;2023-04-04T03:31:23;99929.66;;;2.46;68.24
21086;BME280;34247;50.064;19.970;2023-04-04T03:32:27;99929.69;;;2.45;67.96
21086;BME280;34247;50.064;19.970;2023-04-04T03:33:35;99925.34;;;2.44;68.13
21086;BME280;34247;50.064;19.970;2023-04-04T03:34:43;99930.59;;;2.44;68.09
21086;BME280;34247;50.064;19.970;2023-04-04T03:35:47;99926.28;;;2.41;68.31
21086;BME280;34247;50.064;19.970;2023-04-04T03:36:52;99925.34;;;2.44;68.38
21086;BME280;34247;50.064;19.970;2023-04-04T03:37:56;99929.66;;;2.46;68.18
21086;BME280;34247;50.064;19.970;2023-04-04T03:39:09;99923.53;;;2.46;67.92
21086;BME280;34247;50.064;19.970;2023-04-04T03:40:14;99920.16;;;2.42;68.11
21086;BME280;34247;50.064;19.970;2023-04-04T03:41:18;99920.25;;;2.39;68.11
21086;BME280;34247;50.064;19.970;2023-04-04T03:42:22;99920.19;;;2.41;68.11
21086;BME280;34247;50.064;19.970;2023-04-04T03:43:27;99921.91;;;2.42;68.16
21086;BME280;34247;50.064;19.970;2023-04-04T03:44:32;99924.44;;;2.45;68.15
21086;BME280;34247;50.064;19.970;2023-04-04T03:45:36;99925.28;;;2.47;68.03
21086;BME280;34247;50.064;19.970;2023-04-04T03:46:42;99912.19;;;2.45;68.23
21086;BME280;34247;50.064;19.970;2023-04-04T03:47:46;99912.16;;;2.48;68.24
21086;BME280;34247;50.064;19.970;2023-04-04T03:48:51;99921.72;;;2.49;68.10
21086;BME280;34247;50.064;19.970;2023-04-04T03:49:54;99913.88;;;2.49;68.07
21086;BME280;34247;50.064;19.970;2023-04-04T03:51:01;99923.53;;;2.47;67.96
21086;BME280;34247;50.064;19.970;2023-04-04T03:52:06;99917.38;;;2.48;68.16
21086;BME280;34247;50.064;19.970;2023-04-04T03:53:11;99914.81;;;2.45;68.01
21086;BME280;34247;50.064;19.970;2023-04-04T03:54:17;99916.47;;;2.49;67.82
21086;BME280;34247;50.064;19.970;2023-04-04T03:55:21;99912.91;;;2.52;68.08
21086;BME280;34247;50.064;19.970;2023-04-04T03:56:25;99905.84;;;2.56;68.01
21086;BME280;34247;50.064;19.970;2023-04-04T03:57:30;99906.66;;;2.58;67.89
21086;BME280;34247;50.064;19.970;2023-04-04T03:58:35;99903.28;;;2.53;67.91
21086;BME280;34247;50.064;19.970;2023-04-04T03:59:40;99911.03;;;2.57;67.86
21086;BME280;34247;50.064;19.970;2023-04-04T04:00:45;99903.94;;;2.62;67.98
21086;BME280;34247;50.064;19.970;2023-04-04T04:01:48;99904.84;;;2.61;67.72
21086;BME280;34247;50.064;19.970;2023-04-04T04:02:53;99903.84;;;2.65;67.67
21086;BME280;34247;50.064;19.970;2023-04-04T04:03:57;99900.41;;;2.63;67.56
21086;BME280;34247;50.064;19.970;2023-04-04T04:05:07;99903.72;;;2.70;67.79
21086;BME280;34247;50.064;19.970;2023-04-04T04:06:11;99910.84;;;2.65;67.65
21086;BME280;34247;50.064;19.970;2023-04-04T04:07:16;99903.97;;;2.61;68.16
21086;BME280;34247;50.064;19.970;2023-04-04T04:08:20;99893.41;;;2.64;67.99
21086;BME280;34247;50.064;19.970;2023-04-04T04:09:27;99908.31;;;2.62;68.17
21086;BME280;34247;50.064;19.970;2023-04-04T04:10:34;99906.59;;;2.61;68.09
21086;BME280;34247;50.064;19.970;2023-04-04T04:11:41;99902.97;;;2.65;67.77
21086;BME280;34247;50.064;19.970;2023-04-04T04:12:45;99894.16;;;2.69;67.91
21086;BME280;34247;50.064;19.970;2023-04-04T04:13:50;99902.94;;;2.66;67.72
21086;BME280;34247;50.064;19.970;2023-04-04T04:14:54;99894.31;;;2.63;67.80
21086;BME280;34247;50.064;19.970;2023-04-04T04:16:02;99896.97;;;2.61;67.93
21086;BME280;34247;50.064;19.970;2023-04-04T04:17:06;99904.03;;;2.58;68.33
21086;BME280;34247;50.064;19.970;2023-04-04T04:18:11;99903.28;;;2.53;68.62
21086;BME280;34247;50.064;19.970;2023-04-04T04:19:15;99910.38;;;2.49;68.68
21086;BME280;34247;50.064;19.970;2023-04-04T04:20:21;99909.63;;;2.44;68.73
21086;BME280;34247;50.064;19.970;2023-04-04T04:21:26;99907.97;;;2.41;68.91
21086;BME280;34247;50.064;19.970;2023-04-04T04:22:30;99907.16;;;2.39;69.07
21086;BME280;34247;50.064;19.970;2023-04-04T04:23:34;99907.16;;;2.39;69.34
21086;BME280;34247;50.064;19.970;2023-04-04T04:24:39;99898.38;;;2.40;69.00
21086;BME280;34247;50.064;19.970;2023-04-04T04:25:46;99905.56;;;2.32;69.51
21086;BME280;34247;50.064;19.970;2023-04-04T04:26:50;99906.50;;;2.30;69.73
21086;BME280;34247;50.064;19.970;2023-04-04T04:27:55;99903.81;;;2.33;69.77
21086;BME280;34247;50.064;19.970;2023-04-04T04:29:01;99908.25;;;2.29;70.09
21086;BME280;34247;50.064;19.970;2023-04-04T04:30:27;99910.88;;;2.29;69.85
21086;BME280;34247;50.064;19.970;2023-04-04T04:31:33;99908.34;;;2.26;70.16
21086;BME280;34247;50.064;19.970;2023-04-04T04:32:37;99902.34;;;2.21;70.39
21086;BME280;34247;50.064;19.970;2023-04-04T04:33:42;99914.47;;;2.25;70.40
21086;BME280;34247;50.064;19.970;2023-04-04T04:34:46;99904.88;;;2.24;70.29
21086;BME280;34247;50.064;19.970;2023-04-04T04:35:50;99910.88;;;2.29;70.15
21086;BME280;34247;50.064;19.970;2023-04-04T04:36:54;99912.53;;;2.33;69.99
21086;BME280;34247;50.064;19.970;2023-04-04T04:37:58;99901.25;;;2.30;70.00
21086;BME280;34247;50.064;19.970;2023-04-04T04:39:02;99906.44;;;2.31;70.24
21086;BME280;34247;50.064;19.970;2023-04-04T04:40:07;99916.88;;;2.34;70.22
21086;BME280;34247;50.064;19.970;2023-04-04T04:41:11;99905.56;;;2.32;70.04
21086;BME280;34247;50.064;19.970;2023-04-04T04:42:15;99911.50;;;2.39;70.23
21086;BME280;34247;50.064;19.970;2023-04-04T04:43:20;99911.53;;;2.37;70.14
21086;BME280;34247;50.064;19.970;2023-04-04T04:44:25;99910.00;;;2.29;70.36
21086;BME280;34247;50.064;19.970;2023-04-04T04:45:29;99910.13;;;2.24;71.08
21086;BME280;34247;50.064;19.970;2023-04-04T04:46:37;99914.34;;;2.30;70.57
21086;BME280;34247;50.064;19.970;2023-04-04T04:47:42;99910.81;;;2.32;70.55
21086;BME280;34247;50.064;19.970;2023-04-04T04:48:46;99910.81;;;2.32;70.48
21086;BME280;34247;50.064;19.970;2023-04-04T04:49:50;99914.28;;;2.33;70.38
21086;BME280;34247;50.064;19.970;2023-04-04T04:50:54;99917.00;;;2.28;70.48
21086;BME280;34247;50.064;19.970;2023-04-04T04:52:03;99904.88;;;2.26;70.81
21086;BME280;34247;50.064;19.970;2023-04-04T04:53:08;99903.16;;;2.25;70.98
21086;BME280;34247;50.064;19.970;2023-04-04T04:54:19;99920.63;;;2.22;70.78
21086;BME280;34247;50.064;19.970;2023-04-04T04:55:26;99907.63;;;2.19;70.72
21086;BME280;34247;50.064;19.970;2023-04-04T04:56:30;99912.88;;;2.19;70.53
21086;BME280;34247;50.064;19.970;2023-04-04T04:57:35;99914.69;;;2.16;71.02
21086;BME280;34247;50.064;19.970;2023-04-04T04:58:39;99907.66;;;2.18;70.91
21086;BME280;34247;50.064;19.970;2023-04-04T04:59:43;99915.34;;;2.24;70.76
21086;BME280;34247;50.064;19.970;2023-04-04T05:00:47;99913.69;;;2.21;70.85
21086;BME280;34247;50.064;19.970;2023-04-04T05:01:51;99910.25;;;2.19;71.27
21086;BME280;34247;50.064;19.970;2023-04-04T05:02:55;99916.31;;;2.21;71.07
21086;BME280;34247;50.064;19.970;2023-04-04T05:03:59;99916.25;;;2.23;71.04
21086;BME280;34247;50.064;19.970;2023-04-04T05:05:03;99917.97;;;2.24;71.07
21086;BME280;34247;50.064;19.970;2023-04-04T05:06:07;99917.97;;;2.24;70.87
21086;BME280;34247;50.064;19.970;2023-04-04T05:07:12;99917.06;;;2.27;70.98
21086;BME280;34247;50.064;19.970;2023-04-04T05:08:16;99915.41;;;2.22;71.19
21086;BME280;34247;50.064;19.970;2023-04-04T05:09:21;99919.72;;;2.25;70.93
21086;BME280;34247;50.064;19.970;2023-04-04T05:10:26;99923.31;;;2.21;70.94
21086;BME280;34247;50.064;19.970;2023-04-04T05:11:31;99914.63;;;2.19;71.19
21086;BME280;34247;50.064;19.970;2023-04-04T05:12:35;99919.78;;;2.22;71.35
21086;BME280;34247;50.064;19.970;2023-04-04T05:13:39;99917.97;;;2.24;71.12
21086;BME280;34247;50.064;19.970;2023-04-04T05:14:49;99924.06;;;2.26;71.10
21086;BME280;34247;50.064;19.970;2023-04-04T05:15:53;99913.69;;;2.21;71.27
21086;BME280;34247;50.064;19.970;2023-04-04T05:16:56;99913.56;;;2.26;70.97
21086;BME280;34247;50.064;19.970;2023-04-04T05:18:01;99921.34;;;2.29;71.17
21086;BME280;34247;50.064;19.970;2023-04-04T05:19:05;99924.16;;;2.21;71.19
21086;BME280;34247;50.064;19.970;2023-04-04T05:20:09;99922.47;;;2.19;71.25
21086;BME280;34247;50.064;19.970;2023-04-04T05:21:13;99917.13;;;2.24;71.24
21086;BME280;34247;50.064;19.970;2023-04-04T05:22:18;99921.50;;;2.23;71.46
21086;BME280;34247;50.064;19.970;2023-04-04T05:23:23;99925.00;;;2.22;71.43
21086;BME280;34247;50.064;19.970;2023-04-04T05:24:27;99921.44;;;2.26;71.42
21086;BME280;34247;50.064;19.970;2023-04-04T05:25:37;99926.81;;;2.20;71.25
21086;BME280;34247;50.064;19.970;2023-04-04T05:26:41;99919.88;;;2.19;71.17
21086;BME280;34247;50.064;19.970;2023-04-04T05:27:48;99933.06;;;2.14;71.55
21086;BME280;34247;50.064;19.970;2023-04-04T05:28:52;99919.91;;;2.16;71.54
21086;BME280;34247;50.064;19.970;2023-04-04T05:29:56;99924.25;;;2.17;71.25
21086;BME280;34247;50.064;19.970;2023-04-04T05:31:00;99920.63;;;2.22;71.24
21086;BME280;34247;50.064;19.970;2023-04-04T05:32:04;99919.72;;;2.25;71.12
21086;BME280;34247;50.064;19.970;2023-04-04T05:33:08;99925.78;;;2.27;71.02
21086;BME280;34247;50.064;19.970;2023-04-04T05:34:12;99922.34;;;2.25;70.97
21086;BME280;34247;50.064;19.970;2023-04-04T05:35:16;99928.50;;;2.22;71.25
21086;BME280;34247;50.064;19.970;2023-04-04T05:36:25;99921.34;;;2.29;70.99
21086;BME280;34247;50.064;19.970;2023-04-04T05:37:30;99920.53;;;2.27;70.81
21086;BME280;34247;50.064;19.970;2023-04-04T05:38:37;99932.91;;;2.20;71.16
21086;BME280;34247;50.064;19.970;2023-04-04T05:39:42;99940.69;;;2.25;71.25
21086;BME280;34247;50.064;19.970;2023-04-04T05:40:45;99932.88;;;2.22;71.23
21086;BME280;34247;50.064;19.970;2023-04-04T05:41:50;99934.63;;;2.21;71.36
21086;BME280;34247;50.064;19.970;2023-04-04T05:42:59;99936.28;;;2.26;71.33
21086;BME280;34247;50.064;19.970;2023-04-04T05:44:04;99929.97;;;2.34;70.88
21086;BME280;34247;50.064;19.970;2023-04-04T05:45:09;99928.41;;;2.27;71.12
21086;BME280;34247;50.064;19.970;2023-04-04T05:46:13;99924.88;;;2.28;71.12
21086;BME280;34247;50.064;19.970;2023-04-04T05:47:17;99931.72;;;2.34;70.65
21086;BME280;34247;50.064;19.970;2023-04-04T05:48:24;99929.97;;;2.34;70.88
21086;BME280;34247;50.064;19.970;2023-04-04T05:49:28;99929.88;;;2.37;70.58
21086;BME280;34247;50.064;19.970;2023-04-04T05:50:32;99928.34;;;2.29;70.81